createdAt,value
2023-02-16T00:27:33.119Z,28.30
2023-02-16T00:29:59.674Z,30.88
2023-02-16T00:32:26.299Z,29.65
2023-02-16T00:34:52.904Z,29.73
2023-02-16T00:37:19.441Z,29.27
2023-02-16T00:39:45.875Z,29.80
2023-02-16T00:42:15.454Z,29.13
2023-02-16T00:44:46.948Z,30.42
2023-02-16T00:47:27.700Z,27.63
2023-02-16T00:49:54.965Z,28.98
2023-02-16T00:52:24.458Z,29.13
2023-02-16T00:54:50.888Z,21.55
2023-02-16T00:57:18.159Z,28.92
2023-02-16T00:59:45.401Z,28.17
2023-02-16T01:02:14.724Z,25.42
2023-02-16T01:04:41.458Z,29.10
2023-02-16T01:07:31.036Z,29.50
2023-02-16T01:10:23.696Z,30.17
2023-02-16T01:12:50.164Z,28.63
2023-02-16T01:15:18.784Z,30.23
2023-02-16T01:17:45.241Z,33.13
2023-02-16T01:20:29.972Z,32.75
2023-02-16T01:22:56.355Z,31.80
2023-02-16T01:25:23.234Z,31.73
2023-02-16T01:27:50.509Z,31.33
2023-02-16T01:30:18.649Z,29.73
2023-02-16T01:32:51.356Z,27.58
2023-02-16T01:35:38.097Z,32.63
2023-02-16T01:38:04.484Z,32.75
2023-02-16T01:40:33.879Z,32.53
2023-02-16T01:43:03.266Z,31.38
2023-02-16T01:45:32.905Z,32.28
2023-02-16T01:48:03.421Z,37.03
2023-02-16T01:53:00.250Z,28.02
2023-02-16T01:55:31.037Z,32.28
2023-02-16T01:58:06.532Z,32.10
2023-02-16T02:00:51.579Z,32.85
2023-02-16T02:03:40.952Z,33.90
2023-02-16T02:06:11.673Z,31.77
2023-02-16T02:08:56.942Z,34.88
2023-02-16T02:11:36.772Z,33.55
2023-02-16T02:14:06.788Z,34.85
2023-02-16T02:16:33.347Z,34.53
2023-02-16T02:18:59.733Z,33.63
2023-02-16T02:21:47.867Z,36.08
2023-02-16T02:24:32.441Z,32.50
2023-02-16T02:27:07.599Z,31.70
2023-02-16T02:29:43.181Z,34.53
2023-02-16T02:32:26.646Z,33.63
2023-02-16T02:34:53.079Z,31.10
2023-02-16T02:37:39.469Z,34.20
2023-02-16T02:40:10.402Z,30.95
2023-02-16T02:42:48.409Z,32.72
2023-02-16T02:45:21.436Z,31.60
2023-02-16T02:47:47.971Z,32.63
2023-02-16T02:50:29.738Z,33.63
2023-02-16T02:52:58.579Z,34.50
2023-02-16T02:55:43.660Z,34.40
2023-02-16T02:58:29.449Z,32.08
2023-02-16T03:00:56.133Z,33.58
2023-02-16T03:03:25.261Z,30.00
2023-02-16T03:05:53.366Z,32.25
2023-02-16T03:08:22.608Z,30.00
2023-02-16T03:11:10.309Z,31.63
2023-02-16T03:13:38.771Z,30.90
2023-02-16T03:16:08.323Z,29.63
2023-02-16T03:18:53.886Z,22.83
2023-02-16T03:21:38.763Z,29.25
2023-02-16T03:24:26.505Z,29.63
2023-02-16T03:27:12.208Z,31.23
2023-02-16T03:29:39.499Z,29.15
2023-02-16T03:32:06.276Z,32.75
2023-02-16T03:34:33.303Z,31.27
2023-02-16T03:37:00.771Z,31.42
2023-02-16T03:39:28.045Z,28.70
2023-02-16T03:41:55.039Z,30.73
2023-02-16T03:44:21.832Z,33.55
2023-02-16T03:46:49.626Z,31.98
2023-02-16T03:49:16.530Z,29.52
2023-02-16T03:51:42.919Z,33.28
2023-02-16T03:54:09.307Z,33.92
2023-02-16T03:56:35.707Z,28.17
2023-02-16T03:59:02.140Z,32.50
2023-02-16T04:01:28.570Z,35.83
2023-02-16T04:03:55.059Z,34.83
2023-02-16T04:06:21.517Z,35.35
2023-02-16T04:08:47.909Z,33.65
2023-02-16T04:11:33.124Z,34.72
2023-02-16T04:13:59.509Z,35.75
2023-02-16T04:16:25.942Z,33.13
2023-02-16T04:18:52.353Z,33.70
2023-02-16T04:21:18.770Z,34.22
2023-02-16T04:23:45.157Z,33.33
2023-02-16T04:26:11.550Z,35.83
2023-02-16T04:28:37.914Z,33.67
2023-02-16T04:31:04.698Z,34.50
2023-02-16T04:33:31.330Z,34.50
2023-02-16T04:35:57.681Z,35.80
2023-02-16T04:38:24.275Z,35.42
2023-02-16T04:40:50.645Z,32.55
2023-02-16T04:43:16.981Z,35.55
2023-02-16T04:45:43.551Z,35.42
2023-02-16T04:48:09.985Z,34.33
2023-02-16T04:50:36.362Z,36.65
2023-02-16T04:53:02.767Z,38.13
2023-02-16T04:55:29.759Z,34.72
2023-02-16T04:57:56.159Z,36.38
2023-02-16T05:00:22.753Z,35.92
2023-02-16T05:02:49.130Z,38.92
2023-02-16T05:05:15.661Z,38.38
2023-02-16T05:07:42.064Z,36.45
2023-02-16T05:10:08.951Z,37.33
2023-02-16T05:12:53.935Z,40.25
2023-02-16T05:15:20.306Z,38.92
2023-02-16T05:17:46.651Z,38.08
2023-02-16T05:20:13.084Z,35.33
2023-02-16T05:22:39.435Z,36.17
2023-02-16T05:25:06.912Z,37.95
2023-02-16T05:27:33.423Z,40.38
2023-02-16T05:29:59.906Z,37.10
2023-02-16T05:32:26.352Z,38.95
2023-02-16T05:34:52.778Z,39.00
2023-02-16T05:37:19.172Z,40.13
2023-02-16T05:39:45.681Z,38.28
2023-02-16T05:42:12.204Z,38.20
2023-02-16T05:44:38.688Z,37.65
2023-02-16T05:47:05.323Z,41.95
2023-02-16T05:49:31.673Z,37.20
2023-02-16T05:51:58.064Z,36.53
2023-02-16T05:54:24.446Z,40.65
2023-02-16T05:56:51.738Z,41.55
2023-02-16T05:59:18.068Z,39.05
2023-02-16T06:01:48.533Z,36.78
2023-02-16T06:04:17.029Z,39.10
2023-02-16T06:06:44.065Z,36.92
2023-02-16T06:09:10.470Z,35.17
2023-02-16T06:11:36.917Z,36.22
2023-02-16T06:14:12.198Z,35.05
2023-02-16T06:16:41.920Z,36.63
2023-02-16T06:19:08.735Z,37.63
2023-02-16T06:21:36.938Z,34.38
2023-02-16T06:24:10.235Z,32.15
2023-02-16T06:26:36.921Z,33.88
